Time;durP1;ratioP1;P1;durP2;ratioP2;P2;SDS_P1;SDS_P2;PMS_P1;PMS_P2;Temp;Humidity;BMP_temperature;BMP_pressure;BME280_temperature;BME280_humidity;BME280_pressure;Samples;Min_cycle;Max_cycle;Signal;HPM_P1;HPM_P2
2022/04/14 00:01:53;;;;;;;8.50;3.27;;;17.50;59.10;;;-142.21;95.67;112049.66;5062593;28;20469;-80
2022/04/14 00:04:21;;;;;;;6.10;3.73;;;17.50;58.90;;;-142.21;96.07;112049.66;5053664;28;20452;-80
2022/04/14 00:06:48;;;;;;;6.63;3.97;;;17.50;59.20;;;-142.21;95.77;112049.66;5055756;28;20483;-82
2022/04/14 00:09:15;;;;;;;7.60;3.53;;;17.40;59.30;;;-142.21;94.94;112049.66;5050536;28;20476;-81
2022/04/14 00:11:44;;;;;;;7.47;3.93;;;17.40;59.40;;;-142.21;94.82;112049.66;5065975;28;20513;-80
2022/04/14 00:14:11;;;;;;;5.80;3.80;;;17.30;59.40;;;-142.21;95.15;112049.66;5053749;28;20498;-80
2022/04/14 00:16:39;;;;;;;8.20;3.70;;;17.30;59.70;;;-142.21;94.56;112049.66;5053617;28;20570;-82
2022/04/14 00:19:07;;;;;;;6.43;3.97;;;17.20;59.60;;;-142.21;95.49;112049.66;5060737;28;20440;-81
2022/04/14 00:21:34;;;;;;;6.10;3.67;;;17.10;59.70;;;-142.21;94.63;112049.66;5052464;28;20452;-82
2022/04/14 00:24:02;;;;;;;8.70;3.70;;;17.10;59.20;;;-142.21;94.63;112049.66;5060375;28;20480;-81
2022/04/14 00:26:29;;;;;;;7.13;4.13;;;17.10;59.20;;;-142.21;95.92;112049.66;5062618;28;20514;-82
2022/04/14 00:28:58;;;;;;;6.23;3.40;;;17.10;59.80;;;-142.21;96.32;112049.66;5064976;28;20439;-82
2022/04/14 00:31:25;;;;;;;5.17;3.53;;;17.10;59.50;;;-142.21;95.80;112049.66;5059730;28;20843;-82
2022/04/14 00:33:52;;;;;;;5.30;3.33;;;17.10;59.60;;;-142.21;95.28;112049.66;5052743;28;20877;-81
2022/04/14 00:36:19;;;;;;;8.63;3.77;;;17.20;59.60;;;-142.21;94.95;112049.66;5052351;28;21246;-81
2022/04/14 00:38:47;;;;;;;7.23;4.03;;;17.20;59.60;;;-142.21;94.72;112049.66;5052762;28;20448;-81
2022/04/14 00:41:14;;;;;;;3.60;3.30;;;17.20;59.30;;;-142.21;94.49;112049.66;5054558;28;20454;-81
2022/04/14 00:43:43;;;;;;;5.00;3.43;;;17.20;59.20;;;-142.21;94.68;112049.66;5052594;28;20506;-82
2022/04/14 00:46:11;;;;;;;7.20;3.90;;;17.20;59.30;;;-142.21;94.45;112049.66;5057124;28;20540;-81
2022/04/14 00:48:39;;;;;;;6.50;3.57;;;17.10;59.60;;;-142.21;95.46;112049.66;5056534;28;20506;-81
2022/04/14 00:51:07;;;;;;;5.80;3.77;;;17.10;60.00;;;-142.21;94.72;112049.66;5052615;28;21417;-82
2022/04/14 00:53:34;;;;;;;6.07;3.67;;;17.00;59.80;;;-142.21;94.75;112049.66;5054717;28;20456;-83
2022/04/14 00:56:02;;;;;;;5.63;3.80;;;17.00;59.90;;;-142.21;94.86;112049.66;5062798;28;20813;-82
2022/04/14 00:58:29;;;;;;;5.53;3.67;;;16.90;60.70;;;-142.21;95.45;112049.66;5058119;28;20535;-82
2022/04/14 01:00:56;;;;;;;8.57;3.70;;;16.90;60.10;;;-142.21;95.16;112049.66;5070829;28;20459;-82
2022/04/14 01:03:25;;;;;;;5.83;3.67;;;16.90;59.80;;;-142.21;95.36;112049.66;5059243;28;20452;-82
2022/04/14 01:05:54;;;;;;;6.60;3.67;;;16.80;60.50;;;-142.21;95.21;112049.66;5066012;28;20534;-83
2022/04/14 01:08:23;;;;;;;5.33;3.60;;;16.80;60.80;;;-142.21;95.68;112049.66;5052535;28;20447;-81
2022/04/14 01:10:51;;;;;;;9.33;4.00;;;16.80;60.20;;;-142.21;95.55;112049.66;5054117;28;20583;-81
2022/04/14 01:13:19;;;;;;;8.23;4.57;;;16.70;60.50;;;-142.21;95.67;112049.66;5054171;28;20515;-82
2022/04/14 01:15:48;;;;;;;8.70;4.00;;;16.70;61.10;;;-142.21;96.04;112049.66;5055259;28;20449;-81
2022/04/14 01:18:16;;;;;;;4.80;3.50;;;16.70;61.50;;;-142.21;96.43;112049.66;5052564;28;20812;-82
2022/04/14 01:20:45;;;;;;;8.30;3.53;;;16.60;61.10;;;-142.21;97.49;112049.66;5051312;28;20536;-82
2022/04/14 01:23:19;;;;;;;5.40;3.10;;;16.60;61.70;;;-142.21;97.02;112049.66;5068563;28;20475;-82
2022/04/14 01:25:48;;;;;;;5.37;3.77;;;16.60;61.40;;;-142.21;97.90;112049.66;5051841;28;20436;-81
2022/04/14 01:28:16;;;;;;;3.90;3.50;;;16.60;61.50;;;-142.21;98.07;112049.66;5058288;28;20455;-82
2022/04/14 01:30:44;;;;;;;5.57;3.67;;;16.50;62.30;;;-142.21;97.61;112049.66;5058923;28;20927;-81
2022/04/14 01:33:11;;;;;;;5.27;3.37;;;16.40;62.00;;;-142.21;97.99;112049.66;5073066;28;20428;-82
2022/04/14 01:35:38;;;;;;;8.60;3.80;;;16.40;61.80;;;-142.21;98.40;112049.66;5072332;28;20487;-81
2022/04/14 01:38:06;;;;;;;8.20;3.80;;;16.40;61.80;;;-142.21;98.62;112049.66;5059782;28;20949;-81
2022/04/14 01:40:34;;;;;;;5.90;3.90;;;16.40;62.00;;;-142.21;99.00;112049.66;5055804;28;20452;-82
2022/04/14 01:43:02;;;;;;;4.00;3.40;;;16.40;61.80;;;-142.21;98.48;112049.66;5052292;28;20452;-82
2022/04/14 01:45:29;;;;;;;7.63;3.60;;;16.30;62.10;;;-142.21;98.86;112049.66;5052336;28;20528;-81
2022/04/14 01:47:57;;;;;;;5.27;3.53;;;16.30;62.20;;;-142.21;98.74;112049.66;5058984;28;20538;-81
2022/04/14 01:50:24;;;;;;;5.77;3.57;;;16.40;62.00;;;-142.21;99.12;112049.66;5070779;28;20571;-81
2022/04/14 01:52:51;;;;;;;7.33;3.77;;;16.40;61.80;;;-142.21;98.96;112049.66;5052206;28;20491;-81
2022/04/14 01:55:19;;;;;;;4.70;3.40;;;16.40;62.10;;;-142.21;98.48;112049.66;5052717;28;20452;-81
2022/04/14 01:57:46;;;;;;;4.67;3.30;;;16.40;61.70;;;-142.21;98.63;112049.66;5052681;28;20472;-81
2022/04/14 02:00:16;;;;;;;6.73;3.60;;;16.40;62.00;;;-142.21;98.22;112049.66;5057321;28;20463;-81
2022/04/14 02:02:43;;;;;;;4.77;3.90;;;16.40;62.20;;;-142.21;98.31;112049.66;5061835;28;20480;-81
2022/04/14 02:05:11;;;;;;;5.87;3.50;;;16.40;61.80;;;-142.21;98.40;112049.66;5052186;28;20548;-81
2022/04/14 02:07:38;;;;;;;12.40;4.47;;;16.40;62.00;;;-142.21;98.47;112049.66;5054743;28;20480;-81
2022/04/14 02:10:07;;;;;;;7.50;3.90;;;16.40;62.10;;;-142.21;97.41;112049.66;5051503;28;20480;-81
2022/04/14 02:12:35;;;;;;;7.50;3.80;;;16.20;62.00;;;-142.21;98.67;112049.66;5063492;28;20575;-81
2022/04/14 02:15:02;;;;;;;6.80;3.90;;;16.30;62.40;;;-142.21;97.85;112049.66;5052517;28;20544;-81
2022/04/14 02:17:31;;;;;;;6.60;3.70;;;16.30;61.80;;;-142.21;98.40;112049.66;5058845;28;20479;-80
2022/04/14 02:19:58;;;;;;;5.53;3.20;;;16.30;62.40;;;-142.21;98.14;112049.66;5055206;28;20921;-81
2022/04/14 02:22:25;;;;;;;6.70;3.50;;;16.20;61.30;;;-142.21;97.72;112049.66;5051915;28;20540;-81
2022/04/14 02:24:53;;;;;;;6.30;4.00;;;16.20;61.40;;;-142.21;97.73;112049.66;5066926;28;20527;-81
2022/04/14 02:27:21;;;;;;;6.80;3.90;;;16.20;61.20;;;-142.21;97.65;112049.66;5058403;28;21021;-81
2022/04/14 02:29:48;;;;;;;5.43;3.67;;;16.20;61.40;;;-142.21;98.05;112049.66;5056076;28;20444;-81
2022/04/14 02:32:15;;;;;;;5.93;3.50;;;16.20;61.90;;;-142.21;97.79;112049.66;5053264;28;20941;-81
2022/04/14 02:34:44;;;;;;;6.30;3.40;;;16.20;62.30;;;-142.21;97.97;112049.66;5052131;28;20504;-81
2022/04/14 02:37:12;;;;;;;5.97;3.43;;;16.20;61.90;;;-142.21;98.80;112049.66;5051315;28;20937;-81
2022/04/14 02:39:39;;;;;;;5.87;3.07;;;16.20;62.50;;;-142.21;98.81;112049.66;5058643;28;20458;-81
2022/04/14 02:42:07;;;;;;;5.67;4.03;;;16.20;62.00;;;-142.21;98.23;112049.66;5059072;28;20471;-82
2022/04/14 02:44:34;;;;;;;5.87;3.67;;;16.30;62.20;;;-142.21;98.72;112049.66;5066139;28;20500;-82
2022/04/14 02:47:01;;;;;;;4.50;3.53;;;16.30;62.20;;;-142.21;98.62;112049.66;5055022;28;20536;-81
2022/04/14 02:49:28;;;;;;;4.43;3.40;;;16.30;62.90;;;-142.21;98.46;112049.66;5055203;28;20459;-81
2022/04/14 02:51:57;;;;;;;5.83;3.50;;;16.20;62.30;;;-142.21;97.97;112049.66;5055500;28;20476;-82
2022/04/14 02:54:24;;;;;;;5.77;3.27;;;16.20;62.40;;;-142.21;98.04;112049.66;5055095;28;20483;-81
2022/04/14 02:56:51;;;;;;;3.93;3.33;;;16.30;62.10;;;-142.21;98.55;112049.66;5045825;28;20534;-81
2022/04/14 02:59:19;;;;;;;6.80;3.90;;;16.30;62.70;;;-142.21;98.87;112049.66;5054606;28;20459;-81
2022/04/14 03:01:46;;;;;;;5.87;3.73;;;16.20;62.50;;;-142.21;98.71;112049.66;5064330;28;20542;-82
2022/04/14 03:04:13;;;;;;;7.23;4.30;;;16.10;63.10;;;-142.21;99.09;112049.66;5060451;28;20480;-81
2022/04/14 03:06:40;;;;;;;6.50;3.63;;;15.90;63.30;;;-142.21;99.90;112049.66;5068654;28;20479;-82
2022/04/14 03:09:09;;;;;;;4.20;3.40;;;15.90;62.90;;;-142.21;99.76;112049.66;5056086;28;20530;-81
2022/04/14 03:11:36;;;;;;;5.73;3.37;;;15.90;62.40;;;-142.21;100.00;112049.66;5071308;28;20514;-82
2022/04/14 03:14:03;;;;;;;5.77;3.40;;;15.90;63.00;;;-142.21;100.00;112049.66;5055446;28;20491;-81
2022/04/14 03:16:30;;;;;;;8.53;3.80;;;15.90;63.60;;;-142.21;100.00;112049.66;5070580;28;20452;-82
2022/04/14 03:18:57;;;;;;;5.83;3.77;;;15.90;63.50;;;-142.21;100.00;112049.66;5054983;28;20452;-82
2022/04/14 03:21:25;;;;;;;7.30;3.43;;;15.80;63.90;;;-142.21;100.00;112049.66;5071952;28;20523;-81
2022/04/14 03:23:52;;;;;;;6.57;4.37;;;15.90;63.70;;;-142.21;100.00;112049.66;5058525;28;20536;-82
2022/04/14 03:26:21;;;;;;;7.80;4.37;;;15.90;64.20;;;-142.21;100.00;112049.66;5054716;28;20506;-82
2022/04/14 03:28:48;;;;;;;8.77;4.37;;;16.00;64.10;;;-142.21;100.00;112049.66;5054402;28;20499;-82
2022/04/14 03:31:15;;;;;;;5.13;3.90;;;16.00;64.10;;;-142.21;100.00;112049.66;5065065;28;20571;-80
2022/04/14 03:33:42;;;;;;;6.50;3.83;;;16.10;63.10;;;-142.21;100.00;112049.66;5060175;28;20448;-81
2022/04/14 03:36:10;;;;;;;4.73;3.40;;;16.10;63.10;;;-142.21;100.00;112049.66;5071217;28;20452;-81
2022/04/14 03:38:37;;;;;;;6.30;3.80;;;16.10;62.60;;;-142.21;100.00;112049.66;5054086;28;20528;-81
2022/04/14 03:41:06;;;;;;;5.90;3.87;;;16.10;62.70;;;-142.21;100.00;112049.66;5058142;28;20835;-82
2022/04/14 03:43:36;;;;;;;6.17;3.60;;;16.10;62.90;;;-142.21;100.00;112049.66;5075328;28;20463;-80
2022/04/14 03:46:04;;;;;;;6.60;3.30;;;16.10;63.20;;;-142.21;100.00;112049.66;5081447;28;20845;-80
2022/04/14 03:48:32;;;;;;;6.63;3.80;;;16.10;63.10;;;-142.21;100.00;112049.66;5066600;28;20472;-80
2022/04/14 03:50:59;;;;;;;5.00;4.00;;;16.00;62.80;;;-142.21;100.00;112049.66;5064414;28;21850;-80
2022/04/14 03:53:26;;;;;;;8.27;4.13;;;16.00;62.80;;;-142.21;100.00;112049.66;5054035;28;20530;-81
2022/04/14 03:55:53;;;;;;;6.20;3.73;;;16.00;63.20;;;-142.21;100.00;112049.66;5055783;28;20521;-80
2022/04/14 03:58:21;;;;;;;9.43;3.73;;;16.00;63.30;;;-142.21;100.00;112049.66;5055073;28;20873;-81
2022/04/14 04:00:50;;;;;;;5.70;4.00;;;15.90;63.40;;;-142.21;100.00;112049.66;5053972;28;20980;-81
2022/04/14 04:03:17;;;;;;;6.00;3.77;;;15.90;63.50;;;-142.21;100.00;112049.66;5056384;28;20535;-81
2022/04/14 04:05:44;;;;;;;4.87;3.60;;;15.90;63.00;;;-142.21;100.00;112049.66;5066882;28;20482;-81
2022/04/14 04:08:11;;;;;;;9.50;4.23;;;15.90;63.10;;;-142.21;100.00;112049.66;5058699;28;20477;-80
2022/04/14 04:10:39;;;;;;;7.20;4.87;;;15.90;62.90;;;-142.21;100.00;112049.66;5047755;28;20532;-81
2022/04/14 04:13:06;;;;;;;10.60;3.97;;;15.90;64.70;;;-142.21;100.00;112049.66;5053241;28;20476;-82
2022/04/14 04:15:34;;;;;;;4.23;3.57;;;15.90;64.70;;;-142.21;100.00;112049.66;5056923;28;20440;-81
2022/04/14 04:18:04;;;;;;;6.07;3.97;;;15.90;64.10;;;-142.21;100.00;112049.66;5055102;28;20441;-82
2022/04/14 04:20:32;;;;;;;6.33;4.13;;;15.80;64.50;;;-142.21;100.00;112049.66;5053894;28;20455;-81
2022/04/14 04:22:59;;;;;;;6.17;3.83;;;15.80;64.30;;;-142.21;99.90;112049.66;5053585;28;20506;-80
2022/04/14 04:25:27;;;;;;;7.03;3.87;;;15.70;63.90;;;-142.21;100.00;112049.66;5053263;28;20483;-81
2022/04/14 04:27:54;;;;;;;4.93;3.90;;;15.50;64.70;;;-142.21;100.00;112049.66;5053609;28;20473;-80
2022/04/14 04:30:21;;;;;;;5.70;4.50;;;15.40;65.20;;;-142.21;100.00;112049.66;5054160;28;20540;-81
2022/04/14 04:32:49;;;;;;;7.30;4.60;;;15.30;65.10;;;-142.21;100.00;112049.66;5059642;28;20444;-81
2022/04/14 04:35:17;;;;;;;10.57;5.10;;;15.30;65.20;;;-142.21;100.00;112049.66;5064776;28;20453;-80
2022/04/14 04:37:45;;;;;;;7.57;4.50;;;15.20;65.40;;;-142.21;100.00;112049.66;5061103;28;20498;-81
2022/04/14 04:40:12;;;;;;;12.23;4.90;;;15.10;66.00;;;-142.21;100.00;112049.66;5061932;28;20448;-81
2022/04/14 04:42:40;;;;;;;11.97;5.43;;;15.20;66.40;;;-142.21;100.00;112049.66;5052836;28;20444;-82
2022/04/14 04:45:08;;;;;;;10.47;5.13;;;15.10;66.40;;;-142.21;100.00;112049.66;5053510;28;20532;-81
2022/04/14 04:47:35;;;;;;;6.90;4.93;;;15.00;67.20;;;-142.21;100.00;112049.66;5061604;28;21012;-81
2022/04/14 04:50:06;;;;;;;5.23;4.43;;;15.10;67.30;;;-142.21;100.00;112049.66;5065657;28;20478;-80
2022/04/14 04:52:35;;;;;;;5.77;4.70;;;15.20;65.80;;;-142.21;100.00;112049.66;5041745;28;20481;-82
2022/04/14 04:55:03;;;;;;;7.00;4.60;;;15.20;65.50;;;-142.21;100.00;112049.66;5064576;28;20548;-81
2022/04/14 04:57:31;;;;;;;6.90;4.70;;;15.30;64.90;;;-142.21;100.00;112049.66;5064832;28;20482;-82
2022/04/14 04:59:58;;;;;;;6.30;4.53;;;15.30;65.30;;;-142.21;100.00;112049.66;5064742;28;20808;-81
2022/04/14 05:02:25;;;;;;;5.90;4.50;;;15.40;64.50;;;-142.21;100.00;112049.66;5053606;28;20473;-81
2022/04/14 05:04:52;;;;;;;7.10;4.20;;;15.40;64.50;;;-142.21;100.00;112049.66;5062551;28;21011;-81
2022/04/14 05:07:20;;;;;;;5.67;4.70;;;15.40;64.20;;;-142.21;100.00;112049.66;5052533;28;20471;-80
2022/04/14 05:09:49;;;;;;;10.57;4.90;;;15.40;64.50;;;-142.21;100.00;112049.66;5050206;28;20457;-77
2022/04/14 05:12:16;;;;;;;7.10;4.20;;;15.30;64.80;;;-142.21;100.00;112049.66;5052231;28;20559;-77
2022/04/14 05:14:43;;;;;;;5.37;4.73;;;15.20;65.20;;;-142.21;100.00;112049.66;5051784;28;20464;-77
2022/04/14 05:17:11;;;;;;;6.47;4.10;;;15.20;65.80;;;-142.21;100.00;112049.66;5051094;28;20442;-78
2022/04/14 05:19:38;;;;;;;5.10;4.17;;;15.20;65.70;;;-142.21;100.00;112049.66;5054327;28;20919;-76
2022/04/14 05:22:05;;;;;;;4.27;3.87;;;15.30;65.60;;;-142.21;100.00;112049.66;5055064;28;21020;-80
2022/04/14 05:24:33;;;;;;;6.80;4.83;;;15.40;66.00;;;-142.21;100.00;112049.66;5063760;28;20460;-83
2022/04/14 05:27:02;;;;;;;5.97;4.50;;;15.40;65.70;;;-142.21;100.00;112049.66;5066904;28;20455;-82
2022/04/14 05:29:30;;;;;;;5.27;4.43;;;15.50;65.50;;;-142.21;100.00;112049.66;5059823;28;20872;-81
2022/04/14 05:31:58;;;;;;;5.50;4.27;;;15.50;65.40;;;-142.21;100.00;112049.66;5061371;28;20554;-80
2022/04/14 05:34:25;;;;;;;5.50;4.47;;;15.60;65.50;;;-142.21;100.00;112049.66;5056285;28;20847;-79
2022/04/14 05:36:52;;;;;;;7.17;4.40;;;15.60;65.40;;;-142.21;100.00;112049.66;5052127;28;20444;-79
2022/04/14 05:39:20;;;;;;;6.20;4.43;;;15.60;65.50;;;-142.21;100.00;112049.66;5051477;28;20518;-79
2022/04/14 05:41:47;;;;;;;6.50;4.90;;;15.60;65.70;;;-142.21;100.00;112049.66;5060571;28;20550;-81
2022/04/14 05:44:16;;;;;;;8.83;4.80;;;15.70;65.80;;;-142.21;100.00;112049.66;5068946;28;20467;-82
2022/04/14 05:46:44;;;;;;;6.00;4.60;;;15.70;65.50;;;-142.21;100.00;112049.66;5071125;28;20482;-85
2022/04/14 05:49:11;;;;;;;8.37;4.77;;;15.80;65.80;;;-142.21;100.00;112049.66;5063740;28;21014;-82
2022/04/14 05:51:38;;;;;;;5.30;4.50;;;15.90;65.10;;;-142.21;100.00;112049.66;5059445;28;20516;-80
2022/04/14 05:54:06;;;;;;;6.67;4.30;;;16.00;65.60;;;-142.21;100.00;112049.66;5052342;28;20452;-81
2022/04/14 05:56:33;;;;;;;8.23;5.07;;;16.10;65.90;;;-142.21;100.00;112049.66;5051205;28;20452;-81
2022/04/14 05:59:00;;;;;;;6.97;4.30;;;16.20;65.90;;;-142.21;100.00;112049.66;5050989;28;21006;-80
2022/04/14 06:01:30;;;;;;;9.53;5.07;;;16.30;65.70;;;-142.21;100.00;112049.66;5051797;28;20463;-82
2022/04/14 06:03:57;;;;;;;5.63;5.03;;;16.40;66.10;;;-142.21;100.00;112049.66;5052294;28;21074;-82
2022/04/14 06:06:24;;;;;;;7.57;4.77;;;16.50;65.60;;;-142.21;100.00;112049.66;5051769;28;20448;-82
2022/04/14 06:08:51;;;;;;;11.83;5.73;;;16.60;65.40;;;-142.21;100.00;112049.66;5052492;28;20444;-83
2022/04/14 06:11:19;;;;;;;8.60;5.10;;;16.70;65.60;;;-142.21;100.00;112049.66;5056242;28;20484;-81
2022/04/14 06:13:46;;;;;;;10.63;6.07;;;16.70;65.60;;;-142.21;100.00;112049.66;5060576;28;20511;-82
2022/04/14 06:16:14;;;;;;;7.50;5.60;;;16.80;65.80;;;-142.21;100.00;112049.66;5052647;28;20514;-82
2022/04/14 06:18:42;;;;;;;9.83;5.73;;;16.80;65.80;;;-142.21;100.00;112049.66;5052968;28;20472;-81
2022/04/14 06:21:09;;;;;;;5.83;5.23;;;17.00;66.80;;;-142.21;100.00;112049.66;5056372;28;20475;-82
2022/04/14 06:23:37;;;;;;;8.37;4.70;;;17.10;66.00;;;-142.21;100.00;112049.66;5056351;28;20486;-80
2022/04/14 06:26:05;;;;;;;8.10;5.23;;;17.20;65.70;;;-142.21;100.00;112049.66;5056088;28;20539;-82
2022/04/14 06:28:34;;;;;;;7.07;5.20;;;17.40;66.00;;;-142.21;100.00;112049.66;5056241;28;20726;-81
2022/04/14 06:31:02;;;;;;;7.10;5.20;;;17.40;65.10;;;-142.21;100.00;112049.66;5055299;28;20458;-81
2022/04/14 06:33:30;;;;;;;6.23;4.97;;;17.60;65.50;;;-142.21;100.00;112049.66;5056117;28;20566;-82
2022/04/14 06:35:59;;;;;;;8.00;5.80;;;17.70;65.20;;;-142.21;100.00;112049.66;5055660;28;20453;-83
2022/04/14 06:38:27;;;;;;;7.83;6.10;;;17.80;65.40;;;-142.21;100.00;112049.66;5055642;28;20921;-82
2022/04/14 06:40:54;;;;;;;8.10;5.90;;;17.90;65.30;;;-142.21;100.00;112049.66;5055387;28;20514;-82
2022/04/14 06:43:22;;;;;;;8.80;6.47;;;18.10;65.00;;;-142.21;100.00;112049.66;5055768;28;20515;-82
2022/04/14 06:45:49;;;;;;;8.93;6.77;;;18.30;65.40;;;-142.21;100.00;112049.66;5056119;28;20452;-83
2022/04/14 06:48:16;;;;;;;10.17;6.43;;;18.50;65.80;;;-142.21;100.00;112049.66;5054926;28;20463;-81
2022/04/14 06:50:44;;;;;;;9.63;7.63;;;18.70;64.60;;;-142.21;100.00;112049.66;5055107;28;20854;-81
2022/04/14 06:53:13;;;;;;;11.43;7.83;;;18.90;64.40;;;-142.21;100.00;112049.66;5054529;28;20504;-81
2022/04/14 06:55:42;;;;;;;12.63;9.00;;;19.20;64.40;;;-142.21;100.00;112049.66;5055830;28;20300;-78
2022/04/14 06:58:10;;;;;;;12.23;9.90;;;19.40;64.60;;;-142.21;100.00;112049.66;5054629;28;20452;-76
2022/04/14 07:00:38;;;;;;;13.10;9.53;;;19.60;63.80;;;-142.21;100.00;112049.66;5055421;28;20808;-82
2022/04/14 07:03:05;;;;;;;12.63;10.20;;;19.80;63.80;;;-142.21;100.00;112049.66;5054985;28;20202;-83
2022/04/14 07:05:33;;;;;;;15.70;11.13;;;19.90;63.20;;;-142.21;100.00;112049.66;5055531;28;20217;-82
2022/04/14 07:08:00;;;;;;;13.10;10.57;;;20.00;63.40;;;-142.21;100.00;112049.66;5055574;28;20206;-84
2022/04/14 07:10:29;;;;;;;12.70;10.30;;;20.10;63.00;;;-142.21;100.00;112049.66;5053872;28;20293;-82
2022/04/14 07:12:56;;;;;;;12.40;10.67;;;20.20;62.30;;;-142.21;100.00;112049.66;5054830;28;20264;-84
2022/04/14 07:15:24;;;;;;;11.97;9.97;;;20.20;61.40;;;-142.21;100.00;112049.66;5053497;28;20208;-83
2022/04/14 07:17:51;;;;;;;14.20;11.27;;;20.30;61.90;;;-142.21;100.00;112049.66;5060952;28;20274;-83
2022/04/14 07:20:18;;;;;;;14.57;10.73;;;20.30;61.20;;;-142.21;100.00;112049.66;5064606;28;20197;-82
2022/04/14 07:22:50;;;;;;;14.40;11.20;;;20.30;60.90;;;-142.21;100.00;112049.66;5052582;28;20248;-81
2022/04/14 07:25:18;;;;;;;14.97;10.93;;;20.30;61.90;;;-142.21;100.00;112049.66;5053973;28;20628;-82
2022/04/14 07:27:46;;;;;;;15.03;11.80;;;20.50;62.50;;;-142.21;100.00;112049.66;5053189;28;20202;-83
2022/04/14 07:30:14;;;;;;;13.40;11.60;;;20.70;61.90;;;-142.21;100.00;112049.66;5053017;28;20222;-83
2022/04/14 07:32:45;;;;;;;17.93;11.97;;;20.80;60.80;;;-142.21;100.00;112049.66;5053397;28;20262;-81
2022/04/14 07:35:14;;;;;;;13.20;10.97;;;21.00;61.00;;;-142.21;100.00;112049.66;5037878;28;20236;-81
2022/04/14 07:37:42;;;;;;;15.33;11.70;;;21.10;60.90;;;-142.21;100.00;112049.66;5053541;28;20205;-79
2022/04/14 07:40:10;;;;;;;14.33;11.33;;;21.20;59.60;;;-142.21;100.00;112049.66;5054221;28;20248;-82
2022/04/14 07:42:39;;;;;;;13.53;11.37;;;21.30;59.70;;;-142.21;100.00;112049.66;5054167;28;20202;-82
2022/04/14 07:45:11;;;;;;;13.90;11.30;;;21.40;59.40;;;-142.21;100.00;112049.66;5053844;28;20320;-83
2022/04/14 07:47:41;;;;;;;16.73;11.57;;;21.40;59.90;;;-142.21;100.00;112049.66;5053838;28;20198;-81
2022/04/14 07:50:09;;;;;;;15.23;11.00;;;21.50;59.20;;;-142.21;100.00;112049.66;5052641;28;20202;-82
2022/04/14 07:52:49;;;;;;;14.23;11.10;;;21.50;59.10;;;-142.21;100.00;112049.66;5048496;28;20253;-82
2022/04/14 07:55:24;;;;;;;15.67;11.27;;;21.60;58.90;;;-142.21;100.00;112049.66;5053966;28;20194;-81
2022/04/14 07:57:54;;;;;;;14.83;11.33;;;21.70;58.40;;;-142.21;100.00;112049.66;5053759;28;20212;-80
2022/04/14 08:00:25;;;;;;;14.73;11.50;;;21.90;58.80;;;-142.21;100.00;112049.66;5053462;28;20300;-82
2022/04/14 08:02:56;;;;;;;14.70;11.83;;;22.00;59.00;;;-142.21;100.00;112049.66;5056789;28;20552;-84
2022/04/14 08:05:28;;;;;;;15.60;12.47;;;22.10;58.50;;;-142.21;100.00;112049.66;5056407;28;20206;-81
2022/04/14 08:07:56;;;;;;;12.13;10.73;;;22.10;57.30;;;-142.21;100.00;112049.66;5054050;28;20206;-79
2022/04/14 08:10:23;;;;;;;14.87;12.13;;;22.10;58.30;;;-142.21;100.00;112049.66;5053010;28;20643;-80
2022/04/14 08:12:53;;;;;;;18.30;13.53;;;22.10;57.50;;;-142.21;100.00;112049.66;5012952;28;1184925;-84
2022/04/14 08:15:23;;;;;;;13.93;11.93;;;22.10;57.50;;;-142.21;100.00;112049.66;5054281;28;20204;-83
2022/04/14 08:17:50;;;;;;;16.23;12.20;;;22.20;57.90;;;-142.21;100.00;112049.66;5055320;28;20274;-85
2022/04/14 08:20:19;;;;;;;14.27;11.20;;;22.20;57.80;;;-142.21;100.00;112049.66;5054495;28;20279;-83
2022/04/14 08:22:50;;;;;;;15.77;12.60;;;22.30;57.40;;;-142.21;100.00;112049.66;5054719;28;20284;-81
2022/04/14 08:25:20;;;;;;;13.10;11.50;;;22.30;57.40;;;-142.21;100.00;112049.66;5054604;28;20179;-82
2022/04/14 08:27:48;;;;;;;14.00;12.40;;;22.30;57.10;;;-142.21;100.00;112049.66;5054738;28;20186;-80
2022/04/14 08:30:16;;;;;;;15.47;11.83;;;22.40;57.50;;;-142.21;100.00;112049.66;5054440;28;20296;-82
2022/04/14 08:32:46;;;;;;;13.10;11.70;;;22.40;56.80;;;-142.21;100.00;112049.66;5054150;28;20236;-83
2022/04/14 08:35:15;;;;;;;14.07;11.37;;;22.60;57.00;;;-142.21;100.00;112049.66;5053920;28;20198;-80
2022/04/14 08:37:44;;;;;;;14.73;12.33;;;22.60;56.60;;;-142.21;100.00;112049.66;5053539;28;20207;-83
2022/04/14 08:40:15;;;;;;;14.30;11.83;;;22.70;56.10;;;-142.21;99.93;112049.66;5053902;28;20236;-82
2022/04/14 08:42:52;;;;;;;17.23;13.00;;;22.70;56.10;;;-142.21;99.73;112049.66;5052859;28;20236;-81
2022/04/14 08:45:25;;;;;;;13.80;11.97;;;22.70;55.90;;;-142.21;100.00;112049.66;5053953;28;20220;-83
2022/04/14 08:47:55;;;;;;;15.73;11.87;;;22.80;56.40;;;-142.21;100.00;112049.66;5053130;28;20194;-82
2022/04/14 08:50:24;;;;;;;14.53;11.63;;;22.80;56.30;;;-142.21;100.00;112049.66;5034083;28;20212;-81
2022/04/14 08:52:52;;;;;;;15.83;11.17;;;22.80;56.40;;;-142.21;100.00;112049.66;5045386;28;20222;-82
2022/04/14 08:55:20;;;;;;;16.13;11.57;;;22.80;56.50;;;-142.21;100.00;112049.66;5053477;28;20742;-82
2022/04/14 08:57:57;;;;;;;16.97;13.13;;;22.90;56.60;;;-142.21;100.00;112049.66;5053002;28;20217;-81
2022/04/14 09:00:24;;;;;;;17.40;12.07;;;23.10;56.60;;;-142.21;100.00;112049.66;5053697;28;20282;-82
2022/04/14 09:02:57;;;;;;;14.57;12.03;;;23.50;56.10;;;-142.21;99.97;112049.66;5052723;28;20204;-82
2022/04/14 09:05:25;;;;;;;16.30;11.67;;;24.00;55.70;;;-142.21;98.77;112049.66;5033866;28;20228;-84
2022/04/14 09:07:53;;;;;;;12.70;11.27;;;24.40;54.90;;;-142.21;97.15;112049.66;5032856;28;20202;-80
2022/04/14 09:10:22;;;;;;;15.07;12.03;;;24.70;53.10;;;-142.21;97.22;112049.66;5052778;28;20293;-80
2022/04/14 09:12:50;;;;;;;14.70;12.67;;;24.70;53.40;;;-142.21;96.89;112049.66;5052442;28;20619;-78
2022/04/14 09:15:18;;;;;;;12.57;11.27;;;24.70;53.10;;;-142.21;96.88;112049.66;5053141;28;20205;-81
2022/04/14 09:17:46;;;;;;;12.80;11.50;;;24.60;53.10;;;-142.21;98.10;112049.66;5053037;28;20198;-84
2022/04/14 09:20:34;;;;;;;15.67;11.67;;;24.40;53.40;;;-142.21;98.05;112049.66;5053587;28;20655;-82
2022/04/14 09:23:15;;;;;;;17.60;11.53;;;24.30;53.10;;;-142.21;97.14;112049.66;5053136;28;20206;-82
2022/04/14 09:25:44;;;;;;;16.53;11.87;;;24.20;53.00;;;-142.21;98.37;112049.66;5053535;28;20534;-81
2022/04/14 09:28:14;;;;;;;13.90;10.93;;;24.20;53.50;;;-142.21;97.76;112049.66;5052977;28;20275;-82
2022/04/14 09:30:57;;;;;;;13.77;12.33;;;24.40;54.40;;;-142.21;98.16;112049.66;5053758;28;20593;-82
2022/04/14 09:33:24;;;;;;;15.33;12.73;;;24.60;53.50;;;-142.21;96.49;112049.66;5052652;28;20267;-81
2022/04/14 09:36:13;;;;;;;13.17;11.13;;;24.80;52.90;;;-142.21;97.14;112049.66;5052869;28;20259;-81
2022/04/14 09:38:56;;;;;;;15.60;12.57;;;24.90;53.70;;;-142.21;96.08;112049.66;5052927;28;20181;-83
2022/04/14 09:41:44;;;;;;;15.20;12.00;;;25.00;52.30;;;-142.21;94.95;112049.66;5052114;28;20228;-78
2022/04/14 09:44:13;;;;;;;16.43;11.87;;;24.90;51.60;;;-142.21;95.48;112049.66;5047113;28;20221;-80
2022/04/14 09:46:45;;;;;;;13.00;11.27;;;24.90;52.50;;;-142.21;94.82;112049.66;5052616;28;20202;-81
2022/04/14 09:49:14;;;;;;;13.47;12.07;;;25.10;52.50;;;-142.21;96.20;112049.66;5052601;28;20178;-81
2022/04/14 09:51:45;;;;;;;13.30;11.17;;;25.30;52.70;;;-142.21;93.93;112049.66;5052888;28;20646;-83
2022/04/14 09:54:15;;;;;;;15.07;11.30;;;25.60;52.00;;;-142.21;93.17;112049.66;5051918;28;20275;-80
2022/04/14 09:56:49;;;;;;;13.73;12.10;;;25.80;51.70;;;-142.21;91.45;112049.66;5052673;28;20212;-79
2022/04/14 09:59:19;;;;;;;15.23;11.80;;;25.90;51.00;;;-142.21;91.19;112049.66;5052384;28;20193;-81